sensor_id;sensor_type;location;lat;lon;timestamp;P1;durP1;ratioP1;P2;durP2;ratioP2
45316;SDS011;31053;55.870;37.592;2022-12-08T00:00:14;15.85;;;6.80;;
45316;SDS011;31053;55.870;37.592;2022-12-08T00:03:18;23.90;;;6.00;;
45316;SDS011;31053;55.870;37.592;2022-12-08T00:06:28;16.85;;;6.22;;
45316;SDS011;31053;55.870;37.592;2022-12-08T00:09:52;12.93;;;4.95;;
45316;SDS011;31053;55.870;37.592;2022-12-08T00:12:57;19.55;;;5.25;;
45316;SDS011;31053;55.870;37.592;2022-12-08T00:16:01;13.70;;;5.35;;
45316;SDS011;31053;55.870;37.592;2022-12-08T00:19:08;17.77;;;5.63;;
45316;SDS011;31053;55.870;37.592;2022-12-08T00:22:13;15.98;;;5.20;;
45316;SDS011;31053;55.870;37.592;2022-12-08T00:25:18;13.20;;;5.75;;
45316;SDS011;31053;55.870;37.592;2022-12-08T00:28:23;13.10;;;5.60;;
45316;SDS011;31053;55.870;37.592;2022-12-08T00:31:27;12.32;;;5.22;;
45316;SDS011;31053;55.870;37.592;2022-12-08T00:34:31;13.70;;;4.50;;
45316;SDS011;31053;55.870;37.592;2022-12-08T00:37:36;14.35;;;4.82;;
45316;SDS011;31053;55.870;37.592;2022-12-08T00:40:44;11.20;;;5.25;;
45316;SDS011;31053;55.870;37.592;2022-12-08T00:43:49;9.63;;;4.55;;
45316;SDS011;31053;55.870;37.592;2022-12-08T00:46:54;19.70;;;6.15;;
45316;SDS011;31053;55.870;37.592;2022-12-08T00:49:59;19.90;;;5.40;;
45316;SDS011;31053;55.870;37.592;2022-12-08T00:53:03;11.98;;;5.30;;
45316;SDS011;31053;55.870;37.592;2022-12-08T00:56:08;10.63;;;5.25;;
45316;SDS011;31053;55.870;37.592;2022-12-08T00:59:13;12.80;;;5.93;;
45316;SDS011;31053;55.870;37.592;2022-12-08T01:02:18;14.90;;;5.63;;
45316;SDS011;31053;55.870;37.592;2022-12-08T01:05:22;18.00;;;5.90;;
45316;SDS011;31053;55.870;37.592;2022-12-08T01:08:26;11.13;;;5.07;;
45316;SDS011;31053;55.870;37.592;2022-12-08T01:11:31;12.50;;;4.90;;
45316;SDS011;31053;55.870;37.592;2022-12-08T01:14:35;15.13;;;4.90;;
45316;SDS011;31053;55.870;37.592;2022-12-08T01:17:40;18.33;;;4.90;;
45316;SDS011;31053;55.870;37.592;2022-12-08T01:20:45;10.88;;;4.88;;
45316;SDS011;31053;55.870;37.592;2022-12-08T01:23:49;15.30;;;4.72;;
45316;SDS011;31053;55.870;37.592;2022-12-08T01:26:53;15.73;;;5.55;;
45316;SDS011;31053;55.870;37.592;2022-12-08T01:29:58;16.55;;;4.85;;
45316;SDS011;31053;55.870;37.592;2022-12-08T01:33:03;15.00;;;5.75;;
45316;SDS011;31053;55.870;37.592;2022-12-08T01:36:09;17.00;;;5.88;;
45316;SDS011;31053;55.870;37.592;2022-12-08T01:39:21;15.95;;;6.13;;
45316;SDS011;31053;55.870;37.592;2022-12-08T01:42:26;14.85;;;5.65;;
45316;SDS011;31053;55.870;37.592;2022-12-08T01:45:30;16.55;;;5.72;;
45316;SDS011;31053;55.870;37.592;2022-12-08T01:48:35;23.73;;;6.87;;
45316;SDS011;31053;55.870;37.592;2022-12-08T01:51:41;14.48;;;6.25;;
45316;SDS011;31053;55.870;37.592;2022-12-08T01:55:13;20.67;;;5.72;;
45316;SDS011;31053;55.870;37.592;2022-12-08T01:58:18;24.23;;;7.15;;
45316;SDS011;31053;55.870;37.592;2022-12-08T02:01:44;14.77;;;6.38;;
45316;SDS011;31053;55.870;37.592;2022-12-08T02:04:49;14.38;;;5.47;;
45316;SDS011;31053;55.870;37.592;2022-12-08T02:07:54;14.27;;;5.65;;
45316;SDS011;31053;55.870;37.592;2022-12-08T02:10:59;12.85;;;5.88;;
45316;SDS011;31053;55.870;37.592;2022-12-08T02:14:05;11.75;;;5.38;;
45316;SDS011;31053;55.870;37.592;2022-12-08T02:34:34;13.23;;;5.65;;
45316;SDS011;31053;55.870;37.592;2022-12-08T02:37:49;18.10;;;6.05;;
45316;SDS011;31053;55.870;37.592;2022-12-08T02:47:33;15.20;;;6.57;;
45316;SDS011;31053;55.870;37.592;2022-12-08T02:50:38;23.25;;;6.22;;
45316;SDS011;31053;55.870;37.592;2022-12-08T02:53:42;16.55;;;6.35;;
45316;SDS011;31053;55.870;37.592;2022-12-08T03:00:20;17.15;;;5.07;;
45316;SDS011;31053;55.870;37.592;2022-12-08T03:03:31;13.63;;;5.85;;
45316;SDS011;31053;55.870;37.592;2022-12-08T03:11:16;22.65;;;7.30;;
45316;SDS011;31053;55.870;37.592;2022-12-08T03:14:16;22.50;;;6.68;;
45316;SDS011;31053;55.870;37.592;2022-12-08T03:17:22;20.85;;;5.30;;
45316;SDS011;31053;55.870;37.592;2022-12-08T03:20:29;17.90;;;6.47;;
45316;SDS011;31053;55.870;37.592;2022-12-08T03:23:35;18.98;;;7.53;;
45316;SDS011;31053;55.870;37.592;2022-12-08T03:26:49;10.70;;;5.57;;
45316;SDS011;31053;55.870;37.592;2022-12-08T03:29:56;14.40;;;5.80;;
45316;SDS011;31053;55.870;37.592;2022-12-08T03:33:03;27.70;;;6.50;;
45316;SDS011;31053;55.870;37.592;2022-12-08T03:36:10;14.15;;;5.47;;
45316;SDS011;31053;55.870;37.592;2022-12-08T03:39:16;24.60;;;6.90;;
45316;SDS011;31053;55.870;37.592;2022-12-08T03:42:21;21.65;;;6.93;;
45316;SDS011;31053;55.870;37.592;2022-12-08T03:45:25;12.00;;;5.13;;
45316;SDS011;31053;55.870;37.592;2022-12-08T03:48:30;20.10;;;7.18;;
45316;SDS011;31053;55.870;37.592;2022-12-08T03:51:34;23.35;;;6.07;;
45316;SDS011;31053;55.870;37.592;2022-12-08T03:54:39;11.13;;;5.30;;
45316;SDS011;31053;55.870;37.592;2022-12-08T03:57:44;15.90;;;6.28;;
45316;SDS011;31053;55.870;37.592;2022-12-08T04:00:48;15.57;;;6.57;;
45316;SDS011;31053;55.870;37.592;2022-12-08T04:03:52;12.18;;;5.30;;
45316;SDS011;31053;55.870;37.592;2022-12-08T04:06:57;18.23;;;7.32;;
45316;SDS011;31053;55.870;37.592;2022-12-08T04:10:02;19.95;;;7.85;;
45316;SDS011;31053;55.870;37.592;2022-12-08T04:13:07;10.52;;;4.57;;
45316;SDS011;31053;55.870;37.592;2022-12-08T04:16:16;23.20;;;6.90;;
45316;SDS011;31053;55.870;37.592;2022-12-08T04:19:22;11.30;;;6.28;;
45316;SDS011;31053;55.870;37.592;2022-12-08T04:22:27;20.90;;;7.15;;
45316;SDS011;31053;55.870;37.592;2022-12-08T04:25:31;17.33;;;6.65;;
45316;SDS011;31053;55.870;37.592;2022-12-08T04:28:36;19.45;;;7.13;;
45316;SDS011;31053;55.870;37.592;2022-12-08T04:31:40;13.93;;;6.13;;
45316;SDS011;31053;55.870;37.592;2022-12-08T04:34:45;28.08;;;6.82;;
45316;SDS011;31053;55.870;37.592;2022-12-08T04:37:50;18.38;;;6.93;;
45316;SDS011;31053;55.870;37.592;2022-12-08T04:40:55;19.38;;;6.07;;
45316;SDS011;31053;55.870;37.592;2022-12-08T04:44:00;19.95;;;6.95;;
45316;SDS011;31053;55.870;37.592;2022-12-08T04:47:04;15.77;;;6.68;;
45316;SDS011;31053;55.870;37.592;2022-12-08T04:50:09;14.55;;;5.63;;
45316;SDS011;31053;55.870;37.592;2022-12-08T04:53:14;18.45;;;6.60;;
45316;SDS011;31053;55.870;37.592;2022-12-08T04:56:18;16.27;;;6.28;;
45316;SDS011;31053;55.870;37.592;2022-12-08T04:59:23;20.65;;;7.15;;
45316;SDS011;31053;55.870;37.592;2022-12-08T05:02:27;22.10;;;7.53;;
45316;SDS011;31053;55.870;37.592;2022-12-08T05:05:32;17.38;;;6.38;;
45316;SDS011;31053;55.870;37.592;2022-12-08T05:08:37;20.08;;;6.88;;
45316;SDS011;31053;55.870;37.592;2022-12-08T05:11:41;10.63;;;5.22;;
45316;SDS011;31053;55.870;37.592;2022-12-08T05:14:46;22.90;;;6.30;;
45316;SDS011;31053;55.870;37.592;2022-12-08T05:17:51;15.32;;;5.40;;
45316;SDS011;31053;55.870;37.592;2022-12-08T05:20:56;17.23;;;6.43;;
45316;SDS011;31053;55.870;37.592;2022-12-08T05:24:01;15.18;;;5.00;;
45316;SDS011;31053;55.870;37.592;2022-12-08T05:27:05;14.05;;;5.57;;
45316;SDS011;31053;55.870;37.592;2022-12-08T05:30:10;22.73;;;6.32;;
45316;SDS011;31053;55.870;37.592;2022-12-08T05:33:15;13.60;;;5.03;;
45316;SDS011;31053;55.870;37.592;2022-12-08T05:36:19;13.68;;;6.18;;
45316;SDS011;31053;55.870;37.592;2022-12-08T05:39:24;20.80;;;5.95;;
45316;SDS011;31053;55.870;37.592;2022-12-08T05:42:29;18.08;;;4.80;;
45316;SDS011;31053;55.870;37.592;2022-12-08T05:45:34;12.32;;;4.78;;
45316;SDS011;31053;55.870;37.592;2022-12-08T05:48:38;15.93;;;5.50;;
45316;SDS011;31053;55.870;37.592;2022-12-08T05:51:43;16.75;;;5.45;;
45316;SDS011;31053;55.870;37.592;2022-12-08T05:54:48;12.35;;;5.20;;
45316;SDS011;31053;55.870;37.592;2022-12-08T05:57:52;18.08;;;5.38;;
45316;SDS011;31053;55.870;37.592;2022-12-08T06:00:57;15.32;;;5.80;;
45316;SDS011;31053;55.870;37.592;2022-12-08T06:04:04;13.73;;;5.03;;
45316;SDS011;31053;55.870;37.592;2022-12-08T06:07:09;8.48;;;3.50;;
45316;SDS011;31053;55.870;37.592;2022-12-08T06:10:14;20.90;;;5.45;;
45316;SDS011;31053;55.870;37.592;2022-12-08T06:13:18;16.02;;;6.40;;
45316;SDS011;31053;55.870;37.592;2022-12-08T06:16:23;14.15;;;5.78;;
45316;SDS011;31053;55.870;37.592;2022-12-08T06:19:29;18.90;;;5.70;;
45316;SDS011;31053;55.870;37.592;2022-12-08T06:22:34;14.40;;;5.55;;
45316;SDS011;31053;55.870;37.592;2022-12-08T06:25:40;14.05;;;5.25;;
45316;SDS011;31053;55.870;37.592;2022-12-08T06:28:45;13.73;;;4.75;;
45316;SDS011;31053;55.870;37.592;2022-12-08T06:31:49;11.35;;;4.93;;
45316;SDS011;31053;55.870;37.592;2022-12-08T06:34:55;12.73;;;5.18;;
45316;SDS011;31053;55.870;37.592;2022-12-08T06:37:59;20.23;;;5.85;;
45316;SDS011;31053;55.870;37.592;2022-12-08T06:41:04;18.98;;;5.03;;
45316;SDS011;31053;55.870;37.592;2022-12-08T06:44:09;13.27;;;4.38;;
45316;SDS011;31053;55.870;37.592;2022-12-08T06:47:14;12.30;;;3.92;;
45316;SDS011;31053;55.870;37.592;2022-12-08T06:50:19;9.77;;;3.38;;
45316;SDS011;31053;55.870;37.592;2022-12-08T06:53:24;12.50;;;4.55;;
45316;SDS011;31053;55.870;37.592;2022-12-08T06:56:28;8.07;;;3.08;;
45316;SDS011;31053;55.870;37.592;2022-12-08T06:59:33;6.35;;;2.97;;
45316;SDS011;31053;55.870;37.592;2022-12-08T07:02:40;9.80;;;3.92;;
45316;SDS011;31053;55.870;37.592;2022-12-08T07:05:45;8.68;;;3.55;;
45316;SDS011;31053;55.870;37.592;2022-12-08T07:08:50;9.23;;;3.90;;
45316;SDS011;31053;55.870;37.592;2022-12-08T13:09:02;25.05;;;9.77;;
45316;SDS011;31053;55.870;37.592;2022-12-08T13:12:23;26.63;;;8.93;;
45316;SDS011;31053;55.870;37.592;2022-12-08T13:19:18;30.10;;;9.20;;
45316;SDS011;31053;55.870;37.592;2022-12-08T13:22:48;16.05;;;5.82;;
45316;SDS011;31053;55.870;37.592;2022-12-08T13:29:21;20.27;;;8.30;;
45316;SDS011;31053;55.870;37.592;2022-12-08T13:46:08;12.43;;;5.57;;
45316;SDS011;31053;55.870;37.592;2022-12-08T13:49:13;25.15;;;9.27;;
45316;SDS011;31053;55.870;37.592;2022-12-08T13:52:26;22.95;;;7.53;;
45316;SDS011;31053;55.870;37.592;2022-12-08T13:55:41;24.73;;;7.05;;
45316;SDS011;31053;55.870;37.592;2022-12-08T13:58:47;22.35;;;7.28;;
45316;SDS011;31053;55.870;37.592;2022-12-08T14:01:51;22.45;;;7.72;;
45316;SDS011;31053;55.870;37.592;2022-12-08T14:05:37;30.73;;;8.50;;
45316;SDS011;31053;55.870;37.592;2022-12-08T14:08:50;19.15;;;6.20;;
45316;SDS011;31053;55.870;37.592;2022-12-08T14:12:40;15.75;;;6.85;;
45316;SDS011;31053;55.870;37.592;2022-12-08T14:15:27;19.67;;;8.02;;
45316;SDS011;31053;55.870;37.592;2022-12-08T14:18:32;18.73;;;7.70;;
45316;SDS011;31053;55.870;37.592;2022-12-08T14:21:37;23.08;;;7.80;;
45316;SDS011;31053;55.870;37.592;2022-12-08T14:24:46;22.02;;;7.70;;
45316;SDS011;31053;55.870;37.592;2022-12-08T14:27:58;15.50;;;5.43;;
45316;SDS011;31053;55.870;37.592;2022-12-08T14:31:05;12.95;;;6.78;;
45316;SDS011;31053;55.870;37.592;2022-12-08T14:34:11;18.25;;;6.25;;
45316;SDS011;31053;55.870;37.592;2022-12-08T14:37:21;18.55;;;7.85;;
45316;SDS011;31053;55.870;37.592;2022-12-08T14:40:29;20.45;;;8.18;;
45316;SDS011;31053;55.870;37.592;2022-12-08T14:43:43;20.77;;;6.90;;
45316;SDS011;31053;55.870;37.592;2022-12-08T14:47:07;13.50;;;5.97;;
45316;SDS011;31053;55.870;37.592;2022-12-08T14:53:59;30.27;;;8.25;;
45316;SDS011;31053;55.870;37.592;2022-12-08T14:57:15;31.00;;;9.50;;
45316;SDS011;31053;55.870;37.592;2022-12-08T15:00:20;28.90;;;8.82;;
45316;SDS011;31053;55.870;37.592;2022-12-08T15:03:26;26.30;;;8.55;;
45316;SDS011;31053;55.870;37.592;2022-12-08T15:06:31;21.40;;;9.07;;
45316;SDS011;31053;55.870;37.592;2022-12-08T15:09:37;19.15;;;7.30;;
45316;SDS011;31053;55.870;37.592;2022-12-08T15:16:23;20.65;;;5.82;;
45316;SDS011;31053;55.870;37.592;2022-12-08T15:19:30;28.58;;;8.52;;
45316;SDS011;31053;55.870;37.592;2022-12-08T15:25:40;31.08;;;7.35;;
45316;SDS011;31053;55.870;37.592;2022-12-08T15:28:45;23.05;;;7.00;;
45316;SDS011;31053;55.870;37.592;2022-12-08T15:31:59;11.43;;;4.93;;
45316;SDS011;31053;55.870;37.592;2022-12-08T15:35:12;11.73;;;5.10;;
45316;SDS011;31053;55.870;37.592;2022-12-08T15:38:29;18.38;;;6.50;;
45316;SDS011;31053;55.870;37.592;2022-12-08T15:41:34;15.70;;;5.88;;
45316;SDS011;31053;55.870;37.592;2022-12-08T15:44:39;18.27;;;8.13;;
45316;SDS011;31053;55.870;37.592;2022-12-08T15:47:44;15.55;;;7.18;;
45316;SDS011;31053;55.870;37.592;2022-12-08T15:50:49;28.30;;;8.60;;
45316;SDS011;31053;55.870;37.592;2022-12-08T15:54:03;18.35;;;8.00;;
45316;SDS011;31053;55.870;37.592;2022-12-08T15:57:26;30.73;;;9.30;;
45316;SDS011;31053;55.870;37.592;2022-12-08T16:00:34;27.85;;;7.10;;
45316;SDS011;31053;55.870;37.592;2022-12-08T16:03:40;23.38;;;7.90;;
45316;SDS011;31053;55.870;37.592;2022-12-08T16:06:48;28.00;;;10.43;;
45316;SDS011;31053;55.870;37.592;2022-12-08T16:09:54;16.85;;;6.72;;
45316;SDS011;31053;55.870;37.592;2022-12-08T16:12:59;35.70;;;9.57;;
45316;SDS011;31053;55.870;37.592;2022-12-08T16:16:23;16.42;;;7.03;;
45316;SDS011;31053;55.870;37.592;2022-12-08T16:19:33;24.33;;;7.85;;
45316;SDS011;31053;55.870;37.592;2022-12-08T16:22:37;15.85;;;7.18;;
45316;SDS011;31053;55.870;37.592;2022-12-08T16:25:42;18.63;;;7.13;;
45316;SDS011;31053;55.870;37.592;2022-12-08T16:28:47;19.48;;;8.10;;
45316;SDS011;31053;55.870;37.592;2022-12-08T16:31:52;23.20;;;7.70;;
45316;SDS011;31053;55.870;37.592;2022-12-08T16:34:56;28.58;;;9.20;;
45316;SDS011;31053;55.870;37.592;2022-12-08T16:38:09;32.25;;;9.18;;
45316;SDS011;31053;55.870;37.592;2022-12-08T16:41:20;20.73;;;9.43;;
45316;SDS011;31053;55.870;37.592;2022-12-08T16:44:43;22.13;;;8.93;;
45316;SDS011;31053;55.870;37.592;2022-12-08T16:47:55;23.23;;;8.15;;
45316;SDS011;31053;55.870;37.592;2022-12-08T16:54:38;25.67;;;9.82;;
45316;SDS011;31053;55.870;37.592;2022-12-08T16:57:42;26.92;;;10.68;;
45316;SDS011;31053;55.870;37.592;2022-12-08T17:00:52;28.00;;;9.40;;
45316;SDS011;31053;55.870;37.592;2022-12-08T17:03:56;21.85;;;7.13;;
45316;SDS011;31053;55.870;37.592;2022-12-08T17:07:00;14.75;;;6.38;;
45316;SDS011;31053;55.870;37.592;2022-12-08T17:10:05;27.20;;;7.78;;
45316;SDS011;31053;55.870;37.592;2022-12-08T17:13:11;25.17;;;10.07;;
45316;SDS011;31053;55.870;37.592;2022-12-08T17:16:23;29.42;;;10.70;;
45316;SDS011;31053;55.870;37.592;2022-12-08T17:19:30;36.47;;;10.23;;
45316;SDS011;31053;55.870;37.592;2022-12-08T17:22:35;29.02;;;10.73;;
45316;SDS011;31053;55.870;37.592;2022-12-08T17:25:40;31.83;;;11.35;;
45316;SDS011;31053;55.870;37.592;2022-12-08T17:28:45;28.98;;;11.02;;
45316;SDS011;31053;55.870;37.592;2022-12-08T17:31:50;28.55;;;9.93;;
45316;SDS011;31053;55.870;37.592;2022-12-08T17:35:04;30.10;;;10.32;;
45316;SDS011;31053;55.870;37.592;2022-12-08T17:38:15;30.42;;;12.35;;
45316;SDS011;31053;55.870;37.592;2022-12-08T17:41:20;28.23;;;11.25;;
45316;SDS011;31053;55.870;37.592;2022-12-08T17:44:25;34.90;;;10.88;;
45316;SDS011;31053;55.870;37.592;2022-12-08T17:47:31;33.45;;;10.50;;
45316;SDS011;31053;55.870;37.592;2022-12-08T17:50:37;32.75;;;11.23;;
45316;SDS011;31053;55.870;37.592;2022-12-08T17:53:43;24.52;;;9.63;;
45316;SDS011;31053;55.870;37.592;2022-12-08T17:56:58;31.55;;;9.90;;
45316;SDS011;31053;55.870;37.592;2022-12-08T18:00:03;35.10;;;12.45;;
45316;SDS011;31053;55.870;37.592;2022-12-08T18:03:19;24.73;;;8.98;;
45316;SDS011;31053;55.870;37.592;2022-12-08T18:06:24;36.10;;;11.73;;
45316;SDS011;31053;55.870;37.592;2022-12-08T18:09:29;35.65;;;8.88;;
45316;SDS011;31053;55.870;37.592;2022-12-08T18:12:34;33.37;;;8.97;;
45316;SDS011;31053;55.870;37.592;2022-12-08T18:15:39;26.95;;;10.65;;
45316;SDS011;31053;55.870;37.592;2022-12-08T18:18:44;28.27;;;11.75;;
45316;SDS011;31053;55.870;37.592;2022-12-08T18:21:48;37.08;;;10.98;;
45316;SDS011;31053;55.870;37.592;2022-12-08T18:24:55;30.52;;;9.18;;
45316;SDS011;31053;55.870;37.592;2022-12-08T18:27:59;33.63;;;10.00;;
45316;SDS011;31053;55.870;37.592;2022-12-08T18:31:11;26.02;;;11.02;;
45316;SDS011;31053;55.870;37.592;2022-12-08T18:34:17;19.35;;;8.75;;
45316;SDS011;31053;55.870;37.592;2022-12-08T18:37:22;25.60;;;10.02;;
45316;SDS011;31053;55.870;37.592;2022-12-08T18:40:26;24.98;;;9.63;;
45316;SDS011;31053;55.870;37.592;2022-12-08T18:43:32;36.55;;;12.25;;
45316;SDS011;31053;55.870;37.592;2022-12-08T18:46:36;35.38;;;11.95;;
45316;SDS011;31053;55.870;37.592;2022-12-08T18:49:41;25.55;;;9.82;;
45316;SDS011;31053;55.870;37.592;2022-12-08T18:52:46;26.00;;;10.43;;
45316;SDS011;31053;55.870;37.592;2022-12-08T18:55:51;31.83;;;10.10;;
45316;SDS011;31053;55.870;37.592;2022-12-08T18:58:59;32.45;;;11.02;;
45316;SDS011;31053;55.870;37.592;2022-12-08T19:02:05;18.52;;;8.30;;
45316;SDS011;31053;55.870;37.592;2022-12-08T19:05:10;33.47;;;11.48;;
45316;SDS011;31053;55.870;37.592;2022-12-08T19:08:16;27.08;;;10.25;;
45316;SDS011;31053;55.870;37.592;2022-12-08T19:11:23;29.77;;;9.80;;
45316;SDS011;31053;55.870;37.592;2022-12-08T19:14:32;22.63;;;9.38;;
45316;SDS011;31053;55.870;37.592;2022-12-08T19:17:38;22.42;;;9.35;;
45316;SDS011;31053;55.870;37.592;2022-12-08T19:20:43;18.02;;;7.82;;
45316;SDS011;31053;55.870;37.592;2022-12-08T19:23:48;24.50;;;9.10;;
45316;SDS011;31053;55.870;37.592;2022-12-08T19:26:58;28.98;;;10.93;;
45316;SDS011;31053;55.870;37.592;2022-12-08T19:30:04;25.02;;;9.60;;
45316;SDS011;31053;55.870;37.592;2022-12-08T19:33:09;28.42;;;10.77;;
45316;SDS011;31053;55.870;37.592;2022-12-08T19:36:15;19.27;;;8.07;;
45316;SDS011;31053;55.870;37.592;2022-12-08T19:39:24;31.35;;;10.63;;
45316;SDS011;31053;55.870;37.592;2022-12-08T19:42:50;16.65;;;6.80;;
45316;SDS011;31053;55.870;37.592;2022-12-08T19:46:15;25.13;;;9.65;;
45316;SDS011;31053;55.870;37.592;2022-12-08T19:49:20;29.90;;;9.70;;
45316;SDS011;31053;55.870;37.592;2022-12-08T19:52:25;23.02;;;9.13;;
45316;SDS011;31053;55.870;37.592;2022-12-08T19:55:30;20.27;;;7.70;;
45316;SDS011;31053;55.870;37.592;2022-12-08T19:58:35;15.63;;;6.93;;
45316;SDS011;31053;55.870;37.592;2022-12-08T20:01:42;18.38;;;7.43;;
45316;SDS011;31053;55.870;37.592;2022-12-08T20:05:03;22.38;;;7.18;;
45316;SDS011;31053;55.870;37.592;2022-12-08T20:08:09;19.02;;;6.45;;
45316;SDS011;31053;55.870;37.592;2022-12-08T20:11:14;15.10;;;6.47;;
45316;SDS011;31053;55.870;37.592;2022-12-08T20:14:19;18.40;;;7.40;;
45316;SDS011;31053;55.870;37.592;2022-12-08T20:17:28;17.33;;;6.50;;
45316;SDS011;31053;55.870;37.592;2022-12-08T20:20:38;17.30;;;5.75;;
45316;SDS011;31053;55.870;37.592;2022-12-08T20:23:47;26.17;;;9.70;;
45316;SDS011;31053;55.870;37.592;2022-12-08T20:26:53;14.20;;;7.55;;
45316;SDS011;31053;55.870;37.592;2022-12-08T20:29:57;24.27;;;8.85;;
45316;SDS011;31053;55.870;37.592;2022-12-08T20:33:02;22.55;;;9.38;;
45316;SDS011;31053;55.870;37.592;2022-12-08T20:36:10;28.42;;;10.68;;
45316;SDS011;31053;55.870;37.592;2022-12-08T20:39:21;19.27;;;8.35;;
45316;SDS011;31053;55.870;37.592;2022-12-08T20:42:26;20.90;;;7.65;;
45316;SDS011;31053;55.870;37.592;2022-12-08T20:45:31;15.33;;;7.40;;
45316;SDS011;31053;55.870;37.592;2022-12-08T20:48:36;27.17;;;10.45;;
45316;SDS011;31053;55.870;37.592;2022-12-08T20:51:40;27.15;;;8.95;;
45316;SDS011;31053;55.870;37.592;2022-12-08T20:54:45;23.40;;;9.20;;
45316;SDS011;31053;55.870;37.592;2022-12-08T20:57:50;26.95;;;11.05;;
45316;SDS011;31053;55.870;37.592;2022-12-08T21:01:06;20.42;;;9.50;;
45316;SDS011;31053;55.870;37.592;2022-12-08T21:04:16;20.42;;;9.48;;
45316;SDS011;31053;55.870;37.592;2022-12-08T21:07:21;27.07;;;9.90;;
45316;SDS011;31053;55.870;37.592;2022-12-08T21:10:26;29.85;;;10.10;;
45316;SDS011;31053;55.870;37.592;2022-12-08T21:13:37;16.00;;;7.57;;
45316;SDS011;31053;55.870;37.592;2022-12-08T21:16:42;22.75;;;9.75;;
45316;SDS011;31053;55.870;37.592;2022-12-08T21:19:47;42.40;;;11.90;;
45316;SDS011;31053;55.870;37.592;2022-12-08T21:22:52;32.72;;;13.43;;
45316;SDS011;31053;55.870;37.592;2022-12-08T21:25:57;30.33;;;11.27;;
45316;SDS011;31053;55.870;37.592;2022-12-08T21:29:11;35.72;;;11.00;;
45316;SDS011;31053;55.870;37.592;2022-12-08T21:32:18;31.17;;;11.70;;
45316;SDS011;31053;55.870;37.592;2022-12-08T21:35:32;34.95;;;13.75;;
45316;SDS011;31053;55.870;37.592;2022-12-08T21:38:37;40.88;;;12.60;;
45316;SDS011;31053;55.870;37.592;2022-12-08T21:41:50;36.67;;;13.68;;
45316;SDS011;31053;55.870;37.592;2022-12-08T21:45:14;47.53;;;14.02;;
45316;SDS011;31053;55.870;37.592;2022-12-08T21:48:20;32.95;;;12.73;;
45316;SDS011;31053;55.870;37.592;2022-12-08T21:51:27;33.97;;;13.05;;
45316;SDS011;31053;55.870;37.592;2022-12-08T21:54:36;35.67;;;13.77;;
45316;SDS011;31053;55.870;37.592;2022-12-08T21:57:40;33.42;;;11.55;;
45316;SDS011;31053;55.870;37.592;2022-12-08T22:00:51;28.23;;;10.75;;
45316;SDS011;31053;55.870;37.592;2022-12-08T22:03:56;23.65;;;8.32;;
45316;SDS011;31053;55.870;37.592;2022-12-08T22:07:00;30.33;;;11.50;;
45316;SDS011;31053;55.870;37.592;2022-12-08T22:10:05;46.40;;;14.63;;
45316;SDS011;31053;55.870;37.592;2022-12-08T22:13:11;46.25;;;13.32;;
45316;SDS011;31053;55.870;37.592;2022-12-08T22:16:15;47.92;;;14.13;;
45316;SDS011;31053;55.870;37.592;2022-12-08T22:19:20;29.38;;;10.35;;
45316;SDS011;31053;55.870;37.592;2022-12-08T22:22:25;39.95;;;14.23;;
45316;SDS011;31053;55.870;37.592;2022-12-08T22:25:29;31.05;;;11.50;;
45316;SDS011;31053;55.870;37.592;2022-12-08T22:28:36;36.93;;;13.63;;
45316;SDS011;31053;55.870;37.592;2022-12-08T22:31:44;37.28;;;13.98;;
45316;SDS011;31053;55.870;37.592;2022-12-08T22:34:50;49.15;;;14.43;;
45316;SDS011;31053;55.870;37.592;2022-12-08T22:37:55;27.95;;;12.45;;
45316;SDS011;31053;55.870;37.592;2022-12-08T22:41:00;37.33;;;14.63;;
45316;SDS011;31053;55.870;37.592;2022-12-08T22:44:07;37.92;;;12.63;;
45316;SDS011;31053;55.870;37.592;2022-12-08T22:47:12;42.15;;;15.88;;
45316;SDS011;31053;55.870;37.592;2022-12-08T22:50:16;47.65;;;15.40;;
45316;SDS011;31053;55.870;37.592;2022-12-08T22:53:24;39.97;;;14.60;;
45316;SDS011;31053;55.870;37.592;2022-12-08T22:56:31;45.33;;;14.45;;
45316;SDS011;31053;55.870;37.592;2022-12-08T22:59:36;39.85;;;13.90;;
45316;SDS011;31053;55.870;37.592;2022-12-08T23:02:43;36.83;;;12.73;;
45316;SDS011;31053;55.870;37.592;2022-12-08T23:05:48;53.00;;;16.70;;
45316;SDS011;31053;55.870;37.592;2022-12-08T23:08:57;50.22;;;16.73;;
45316;SDS011;31053;55.870;37.592;2022-12-08T23:12:02;53.22;;;18.30;;
45316;SDS011;31053;55.870;37.592;2022-12-08T23:15:08;56.15;;;19.50;;
45316;SDS011;31053;55.870;37.592;2022-12-08T23:18:13;58.80;;;19.60;;
45316;SDS011;31053;55.870;37.592;2022-12-08T23:21:25;63.20;;;21.13;;
45316;SDS011;31053;55.870;37.592;2022-12-08T23:24:32;67.28;;;24.50;;
45316;SDS011;31053;55.870;37.592;2022-12-08T23:27:37;65.75;;;21.73;;
45316;SDS011;31053;55.870;37.592;2022-12-08T23:30:42;75.68;;;23.17;;
45316;SDS011;31053;55.870;37.592;2022-12-08T23:33:47;65.15;;;22.23;;
45316;SDS011;31053;55.870;37.592;2022-12-08T23:36:51;61.20;;;23.17;;
45316;SDS011;31053;55.870;37.592;2022-12-08T23:39:55;91.30;;;29.30;;
45316;SDS011;31053;55.870;37.592;2022-12-08T23:43:00;70.63;;;23.77;;
45316;SDS011;31053;55.870;37.592;2022-12-08T23:46:05;93.45;;;31.35;;
45316;SDS011;31053;55.870;37.592;2022-12-08T23:49:09;86.32;;;30.52;;
45316;SDS011;31053;55.870;37.592;2022-12-08T23:52:14;92.78;;;31.02;;
45316;SDS011;31053;55.870;37.592;2022-12-08T23:55:18;71.93;;;27.13;;
45316;SDS011;31053;55.870;37.592;2022-12-08T23:58:23;86.93;;;29.75;;
